createdAt,value
2019-04-19T00:04:23.352Z,99.30
2019-04-19T00:10:37.925Z,99.90
2019-04-19T00:16:34.103Z,99.90
2019-04-19T00:22:53.995Z,99.90
2019-04-19T00:28:53.686Z,99.90
2019-04-19T00:34:52.583Z,99.90
2019-04-19T00:41:18.834Z,99.90
2019-04-19T00:47:23.220Z,99.90
2019-04-19T00:53:27.470Z,99.90
2019-04-19T00:59:22.706Z,99.90
2019-04-19T01:05:30.421Z,99.90
2019-04-19T01:11:49.346Z,99.90
2019-04-19T01:17:59.003Z,99.90
2019-04-19T01:23:50.977Z,99.90
2019-04-19T01:29:55.005Z,99.90
2019-04-19T01:36:00.470Z,99.90
2019-04-19T01:42:26.158Z,99.90
2019-04-19T01:48:34.151Z,99.90
2019-04-19T01:54:36.904Z,99.90
2019-04-19T02:00:37.238Z,99.90
2019-04-19T02:06:36.761Z,99.90
2019-04-19T02:12:47.122Z,99.90
2019-04-19T02:18:45.284Z,99.90
2019-04-19T02:24:53.907Z,99.90
2019-04-19T02:31:10.529Z,99.90
2019-04-19T02:43:45.201Z,99.90
2019-04-19T02:49:57.960Z,99.90
2019-04-19T02:55:53.134Z,99.90
2019-04-19T03:07:53.835Z,99.90
2019-04-19T03:14:12.015Z,99.90
2019-04-19T03:20:23.214Z,99.90
2019-04-19T03:26:30.959Z,99.90
2019-04-19T03:38:43.121Z,99.90
2019-04-19T03:45:00.316Z,99.90
2019-04-19T03:51:05.553Z,99.90
2019-04-19T03:57:06.057Z,99.90
2019-04-19T04:02:54.743Z,99.90
2019-04-19T04:09:18.290Z,99.90
2019-04-19T04:15:55.516Z,99.90
2019-04-19T04:21:49.307Z,99.90
2019-04-19T04:28:01.633Z,99.90
2019-04-19T04:34:10.204Z,99.90
2019-04-19T04:40:06.315Z,99.90
2019-04-19T04:46:52.898Z,99.90
2019-04-19T04:52:40.592Z,99.90
2019-04-19T04:58:46.940Z,99.90
2019-04-19T05:05:10.002Z,99.90
2019-04-19T05:11:16.751Z,99.90
2019-04-19T05:17:37.182Z,99.90
2019-04-19T05:23:28.835Z,99.90
2019-04-19T05:29:24.336Z,99.90
2019-04-19T05:35:38.051Z,99.90
2019-04-19T05:41:51.410Z,99.90
2019-04-19T05:47:49.319Z,99.90
2019-04-19T05:53:49.689Z,99.90
2019-04-19T05:59:59.762Z,99.90
2019-04-19T06:06:26.274Z,99.90
2019-04-19T06:12:09.561Z,99.90
2019-04-19T06:18:25.698Z,99.90
2019-04-19T06:24:39.463Z,99.90
2019-04-19T06:30:45.465Z,99.90
2019-04-19T06:36:33.927Z,99.90
2019-04-19T06:42:46.165Z,99.90
2019-04-19T06:48:55.188Z,99.90
2019-04-19T06:54:51.704Z,99.90
2019-04-19T07:01:11.064Z,99.90
2019-04-19T07:07:25.102Z,99.90
2019-04-19T07:13:21.214Z,99.90
2019-04-19T07:19:36.060Z,99.90
2019-04-19T07:25:47.786Z,99.90
2019-04-19T07:31:28.460Z,99.90
2019-04-19T07:37:51.358Z,99.90
2019-04-19T07:43:58.544Z,99.90
2019-04-19T07:50:04.012Z,99.90
2019-04-19T07:56:13.087Z,99.90
2019-04-19T08:02:38.565Z,99.90
2019-04-19T08:08:48.918Z,99.90
2019-04-19T08:14:51.731Z,99.90
2019-04-19T08:32:38.569Z,99.90
2019-04-19T08:39:03.239Z,99.90
2019-04-19T08:44:59.214Z,99.90
2019-04-19T08:51:06.196Z,99.90
2019-04-19T08:57:18.786Z,99.90
2019-04-19T09:03:45.183Z,99.90
2019-04-19T09:10:00.232Z,99.90
2019-04-19T09:15:54.914Z,99.90
2019-04-19T09:21:55.946Z,98.00
2019-04-19T09:28:13.876Z,96.60
2019-04-19T09:34:00.426Z,95.50
2019-04-19T09:40:06.247Z,93.40
2019-04-19T09:46:06.126Z,88.20
2019-04-19T09:52:39.719Z,85.10
2019-04-19T09:58:36.864Z,86.90
2019-04-19T10:04:23.458Z,76.70
2019-04-19T10:10:29.089Z,74.90
2019-04-19T10:16:38.183Z,67.10
2019-04-19T10:22:43.248Z,58.90
2019-04-19T10:28:48.787Z,60.40
2019-04-19T10:34:54.615Z,58.10
2019-04-19T10:40:59.719Z,53.40
2019-04-19T10:47:04.890Z,49.70
2019-04-19T10:53:10.346Z,47.70
2019-04-19T10:59:16.456Z,49.80
2019-04-19T11:05:23.212Z,47.00
2019-04-19T11:11:27.836Z,44.80
2019-04-19T11:17:33.714Z,43.20
2019-04-19T11:23:39.731Z,44.10
2019-04-19T11:29:44.794Z,42.40
2019-04-19T11:35:51.125Z,39.70
2019-04-19T11:41:56.906Z,41.30
2019-04-19T11:48:03.163Z,37.20
2019-04-19T11:54:08.301Z,37.30
2019-04-19T12:00:32.008Z,36.60
2019-04-19T12:06:36.619Z,34.90
2019-04-19T12:12:41.335Z,36.10
2019-04-19T12:18:46.845Z,33.60
2019-04-19T12:24:54.009Z,34.50
2019-04-19T12:30:58.743Z,34.00
2019-04-19T12:37:04.726Z,33.90
2019-04-19T12:43:09.910Z,32.50
2019-04-19T12:49:14.670Z,33.40
2019-04-19T12:55:19.928Z,30.70
2019-04-19T13:01:26.401Z,30.00
2019-04-19T13:07:31.134Z,31.20
2019-04-19T13:13:36.188Z,33.00
2019-04-19T13:19:40.862Z,30.20
2019-04-19T13:25:47.168Z,30.00
2019-04-19T13:31:52.527Z,28.50
2019-04-19T13:38:09.577Z,28.40
2019-04-19T13:44:14.693Z,27.30
2019-04-19T13:50:28.252Z,29.60
2019-04-19T13:56:26.751Z,28.20
2019-04-19T14:02:31.543Z,29.10
2019-04-19T14:08:37.418Z,28.50
2019-04-19T14:14:42.109Z,28.10
2019-04-19T14:20:50.203Z,27.20
2019-04-19T14:26:55.968Z,28.80
2019-04-19T14:33:00.077Z,30.00
2019-04-19T14:39:07.180Z,28.00
2019-04-19T14:45:14.235Z,28.00
2019-04-19T14:51:25.906Z,28.10
2019-04-19T14:57:25.161Z,28.90
2019-04-19T15:03:30.780Z,27.90
2019-04-19T15:09:35.610Z,27.40
2019-04-19T15:15:41.379Z,26.40
2019-04-19T15:21:46.154Z,28.40
2019-04-19T15:27:50.858Z,28.80
2019-04-19T15:33:56.613Z,26.70
2019-04-19T15:40:02.383Z,28.10
2019-04-19T15:46:08.029Z,27.10
2019-04-19T15:52:14.312Z,27.40
2019-04-19T15:58:20.248Z,27.60
2019-04-19T16:04:44.061Z,28.80
2019-04-19T16:11:04.604Z,28.50
2019-04-19T16:17:09.463Z,28.60
2019-04-19T16:23:14.264Z,28.70
2019-04-19T16:29:28.993Z,28.10
2019-04-19T16:35:26.397Z,28.00
2019-04-19T16:41:31.106Z,28.60
2019-04-19T16:47:35.670Z,28.40
2019-04-19T16:53:40.218Z,28.60
2019-04-19T16:59:45.877Z,29.70
2019-04-19T17:05:50.999Z,29.40
2019-04-19T17:11:57.701Z,30.70
2019-04-19T17:18:04.890Z,29.50
2019-04-19T17:24:09.607Z,32.10
2019-04-19T17:30:15.064Z,31.90
2019-04-19T17:36:19.982Z,32.90
2019-04-19T17:42:24.770Z,33.60
2019-04-19T17:48:30.430Z,32.90
2019-04-19T17:54:53.792Z,34.60
2019-04-19T18:00:42.056Z,36.60
2019-04-19T18:06:52.008Z,38.60
2019-04-19T18:12:53.231Z,40.80
2019-04-19T18:18:59.144Z,41.30
2019-04-19T18:25:08.652Z,44.40
2019-04-19T18:31:14.531Z,47.20
2019-04-19T18:37:22.145Z,49.60
2019-04-19T18:43:37.679Z,49.30
2019-04-19T18:49:31.747Z,49.00
2019-04-19T18:55:41.766Z,52.10
2019-04-19T19:01:44.400Z,52.20
2019-04-19T19:07:54.339Z,52.40
2019-04-19T19:13:55.391Z,53.90
2019-04-19T19:20:06.583Z,53.70
2019-04-19T19:26:18.215Z,53.80
2019-04-19T19:32:15.859Z,53.90
2019-04-19T19:38:25.630Z,53.70
2019-04-19T19:44:34.775Z,54.70
2019-04-19T19:50:54.328Z,55.90
2019-04-19T19:56:55.864Z,56.80
2019-04-19T20:02:57.905Z,58.10
2019-04-19T20:08:53.824Z,59.00
2019-04-19T20:15:00.071Z,60.20
2019-04-19T20:21:04.479Z,62.70
2019-04-19T20:27:15.910Z,62.80
2019-04-19T20:33:16.821Z,60.80
2019-04-19T20:39:24.869Z,61.30
2019-04-19T20:45:36.877Z,61.50
2019-04-19T20:51:50.797Z,60.70
2019-04-19T20:58:03.213Z,61.70
2019-04-19T21:04:05.906Z,59.90
2019-04-19T21:10:14.295Z,59.10
2019-04-19T21:16:16.245Z,59.30
2019-04-19T21:22:25.962Z,58.30
2019-04-19T21:28:33.212Z,59.10
2019-04-19T21:34:36.545Z,59.40
2019-04-19T21:40:42.117Z,63.30
2019-04-19T21:46:46.305Z,65.00
2019-04-19T21:52:58.052Z,69.60
2019-04-19T21:58:59.191Z,73.50
2019-04-19T22:05:07.470Z,77.40
2019-04-19T22:11:09.836Z,82.50
2019-04-19T22:17:18.201Z,86.50
2019-04-19T22:23:20.766Z,89.50
2019-04-19T22:29:25.393Z,91.80
2019-04-19T22:35:30.363Z,94.30
2019-04-19T22:41:35.060Z,98.60
2019-04-19T22:47:39.767Z,99.90
2019-04-19T22:53:44.501Z,99.90
2019-04-19T22:59:54.672Z,99.90
2019-04-19T23:05:55.491Z,99.90
2019-04-19T23:12:00.484Z,99.90
2019-04-19T23:18:10.650Z,99.90
2019-04-19T23:24:14.919Z,99.90
2019-04-19T23:30:25.033Z,99.90
2019-04-19T23:36:27.689Z,99.90
2019-04-19T23:42:33.299Z,99.90
2019-04-19T23:48:38.611Z,99.90
2019-04-19T23:54:44.045Z,99.90
